Time;durP1;ratioP1;P1;durP2;ratioP2;P2;SDS_P1;SDS_P2;PMS_P1;PMS_P2;Temp;Humidity;BMP_temperature;BMP_pressure;BME280_temperature;BME280_humidity;BME280_pressure;Samples;Min_cycle;Max_cycle;Signal;HPM_P1;HPM_P2
2023/04/11 00:00:34;;;;;;;1.60;1.50;;;;;;;10.90;69.91;97805.63;15250507;19;20016;-44
2023/04/11 00:05:59;;;;;;;2.58;1.67;;;;;;;10.88;73.10;97785.25;15258098;19;20028;-45
2023/04/11 00:11:24;;;;;;;2.00;1.50;;;;;;;10.85;78.65;97782.94;15253410;19;20023;-44
2023/04/11 00:16:52;;;;;;;1.55;1.45;;;;;;;10.79;76.26;97787.19;15262202;19;20011;-44
2023/04/11 00:22:18;;;;;;;3.05;1.52;;;;;;;10.79;81.88;97795.28;15267730;19;20626;-46
2023/04/11 00:27:43;;;;;;;1.52;1.42;;;;;;;10.70;92.25;97791.78;15269456;19;20090;-44
2023/04/11 00:33:11;;;;;;;1.70;1.60;;;;;;;10.57;100.00;97804.97;15264534;19;20662;-44
2023/04/11 00:38:35;;;;;;;1.77;1.67;;;;;;;10.39;100.00;97811.47;15269302;19;20275;-44
2023/04/11 00:44:00;;;;;;;3.72;1.60;;;;;;;10.09;100.00;97832.75;15270037;19;20093;-46
2023/04/11 00:49:30;;;;;;;1.90;1.80;;;;;;;9.85;100.00;97833.66;15270482;19;20758;-47
2023/04/11 00:54:56;;;;;;;2.00;1.90;;;;;;;9.63;100.00;97829.81;15268401;19;20014;-45
2023/04/11 01:00:21;;;;;;;3.05;2.10;;;;;;;9.50;100.00;97800.75;15265561;19;20014;-42
2023/04/11 01:05:51;;;;;;;2.38;2.17;;;;;;;9.29;100.00;97790.53;15268071;19;20029;-43
2023/04/11 01:11:19;;;;;;;2.42;2.05;;;;;;;9.17;100.00;97784.66;15265766;19;20086;-46
2023/04/11 01:16:45;;;;;;;2.42;2.22;;;;;;;9.02;100.00;97789.84;15269086;19;20015;-44
2023/04/11 01:22:16;;;;;;;2.45;2.25;;;;;;;8.88;100.00;97786.78;15261998;19;20078;-41
2023/04/11 01:27:44;;;;;;;2.30;2.10;;;;;;;8.87;100.00;97785.16;15262608;19;20096;-44
2023/04/11 01:33:09;;;;;;;2.60;2.40;;;;;;;8.79;100.00;97771.69;15266995;19;20040;-42
2023/04/11 01:38:34;;;;;;;2.60;2.40;;;;;;;8.75;100.00;97760.44;15263133;19;20019;-42
2023/04/11 01:44:01;;;;;;;2.75;2.20;;;;;;;8.71;100.00;97748.34;15264639;19;20019;-42
2023/04/11 01:49:27;;;;;;;2.63;2.42;;;;;;;8.68;100.00;97754.06;15267645;19;20023;-44
2023/04/11 01:54:53;;;;;;;2.53;2.33;;;;;;;8.64;100.00;97741.97;15263343;19;20483;-43
2023/04/11 02:00:25;;;;;;;2.53;2.33;;;;;;;8.62;100.00;97735.91;15261884;19;20090;-44
2023/04/11 02:05:51;;;;;;;2.83;2.58;;;;;;;8.59;100.00;97729.03;15267597;19;20081;-43
2023/04/11 02:11:16;;;;;;;2.70;2.50;;;;;;;8.58;100.00;97731.91;15256173;19;20014;-42
2023/04/11 02:16:54;;;;;;;3.20;2.67;;;;;;;8.56;100.00;97720.47;15253593;19;20019;-47
2023/04/11 02:22:20;;;;;;;2.60;2.40;;;;;;;8.50;100.00;97724.66;15265840;19;20031;-45
2023/04/11 02:27:44;;;;;;;2.83;2.63;;;;;;;8.49;100.00;97717.63;15264725;19;20010;-48
2023/04/11 02:33:12;;;;;;;3.00;2.70;;;;;;;8.46;100.00;97705.34;15264776;19;20025;-46
2023/04/11 02:38:38;;;;;;;2.85;2.65;;;;;;;8.44;100.00;97704.66;15268276;19;20042;-46
2023/04/11 02:44:02;;;;;;;2.70;2.50;;;;;;;8.47;100.00;97698.13;15255426;19;20074;-50
2023/04/11 02:49:30;;;;;;;2.97;2.67;;;;;;;8.44;100.00;97687.72;15262627;19;20070;-47
2023/04/11 02:54:59;;;;;;;2.70;2.50;;;;;;;8.44;100.00;97682.34;15261147;19;20014;-52
2023/04/11 03:00:25;;;;;;;2.80;2.60;;;;;;;8.45;100.00;97684.00;15263245;19;20034;-50
2023/04/11 03:05:55;;;;;;;2.70;2.50;;;;;;;8.45;100.00;97673.28;15261301;19;20014;-52
2023/04/11 03:11:21;;;;;;;2.80;2.50;;;;;;;8.46;100.00;97670.44;15262956;19;20025;-54
2023/04/11 03:16:48;;;;;;;2.50;2.30;;;;;;;8.51;100.00;97672.66;15260369;19;20034;-46
2023/04/11 03:22:18;;;;;;;2.58;2.38;;;;;;;8.42;100.00;97666.41;15264772;19;20090;-45
2023/04/11 03:27:44;;;;;;;3.00;2.70;;;;;;;8.42;100.00;97647.63;15261341;19;20025;-48
2023/04/11 03:33:11;;;;;;;2.90;2.70;;;;;;;8.40;100.00;97638.06;15261252;19;20725;-45
2023/04/11 03:38:38;;;;;;;3.33;2.60;;;;;;;8.39;100.00;97625.66;15259504;19;20014;-48
2023/04/11 03:44:04;;;;;;;2.80;2.60;;;;;;;8.35;100.00;97657.31;15258489;19;20486;-47
2023/04/11 03:49:31;;;;;;;3.25;2.80;;;;;;;8.30;100.00;97665.88;15254516;19;20018;-45
2023/04/11 03:55:01;;;;;;;3.30;3.00;;;;;;;8.22;100.00;97678.47;15273925;19;20034;-45
2023/04/11 04:00:28;;;;;;;3.30;2.97;;;;;;;8.23;100.00;97670.25;15275267;19;20007;-46
2023/04/11 04:05:53;;;;;;;3.20;2.90;;;;;;;8.16;100.00;97682.63;15270023;19;20070;-48
2023/04/11 04:11:21;;;;;;;3.20;2.90;;;;;;;8.18;100.00;97677.94;15265624;19;20018;-45
2023/04/11 04:22:31;;;;;;;2.83;2.63;;;;;;;8.17;100.00;97687.00;15266823;19;20340;-44
2023/04/11 04:28:08;;;;;;;3.33;3.03;;;;;;;8.15;100.00;97689.84;15277393;19;20014;-46
2023/04/11 04:39:40;;;;;;;3.10;2.80;;;;;;;8.10;100.00;97694.00;15273754;19;20006;-43
2023/04/11 04:45:13;;;;;;;3.72;3.30;;;;;;;8.10;100.00;97708.28;15268964;19;20019;-43
2023/04/11 04:50:40;;;;;;;3.88;2.50;;;;;;;8.07;100.00;97697.88;15269397;19;20013;-46
2023/04/11 04:56:05;;;;;;;2.88;2.40;;;;;;;8.14;100.00;97693.53;15265965;19;20017;-44
2023/04/11 05:01:38;;;;;;;3.80;3.17;;;;;;;8.11;100.00;97709.97;15267869;19;20031;-48
2023/04/11 05:07:10;;;;;;;3.35;2.63;;;;;;;8.05;100.00;97718.66;15263165;19;20087;-43
2023/04/11 05:12:40;;;;;;;3.42;3.00;;;;;;;8.06;100.00;97730.22;15268930;19;20014;-47
2023/04/11 05:18:07;;;;;;;4.25;3.60;;;;;;;8.04;100.00;97726.88;15264063;19;20014;-47
2023/04/11 05:23:32;;;;;;;4.15;3.60;;;;;;;8.02;100.00;97717.13;15262072;19;20014;-46
2023/04/11 05:28:57;;;;;;;4.00;3.17;;;;;;;7.97;100.00;97724.81;15270039;19;20487;-47
2023/04/11 05:40:46;;;;;;;3.63;3.10;;;;;;;7.96;100.00;97733.88;15263739;19;19998;-45
2023/04/11 05:46:14;;;;;;;3.40;3.10;;;;;;;7.95;100.00;97726.81;15269123;19;20082;-47
2023/04/11 05:51:39;;;;;;;4.00;3.65;;;;;;;7.91;100.00;97741.56;15267628;19;20475;-45
2023/04/11 05:57:06;;;;;;;4.32;3.20;;;;;;;7.84;100.00;97746.75;15262770;19;20021;-48
2023/04/11 06:02:33;;;;;;;3.17;2.88;;;;;;;7.96;100.00;97741.09;15244666;19;20015;-51
2023/04/11 06:07:58;;;;;;;3.20;2.70;;;;;;;7.95;100.00;97732.19;15267359;19;20024;-47
2023/04/11 06:13:24;;;;;;;2.60;2.40;;;;;;;7.97;100.00;97718.63;15264869;19;20014;-46
2023/04/11 06:18:58;;;;;;;2.30;2.10;;;;;;;7.96;100.00;97731.19;15263388;19;20491;-45
2023/04/11 06:24:36;;;;;;;3.17;1.52;;;;;;;7.90;100.00;97723.81;15260911;19;20014;-48
2023/04/11 06:30:01;;;;;;;1.77;1.60;;;;;;;7.95;100.00;97701.84;15262350;19;20467;-47
2023/04/11 06:35:28;;;;;;;1.73;1.63;;;;;;;7.99;100.00;97695.16;15265090;19;20022;-48
2023/04/11 06:40:55;;;;;;;2.55;1.60;;;;;;;7.99;100.00;97730.88;15265832;19;20058;-47
2023/04/11 06:46:19;;;;;;;3.05;1.80;;;;;;;8.03;100.00;97734.06;15261558;19;20524;-45
2023/04/11 06:51:49;;;;;;;1.70;1.60;;;;;;;8.05;100.00;97736.59;15263740;19;20029;-46
2023/04/11 06:57:14;;;;;;;2.88;1.60;;;;;;;8.04;100.00;97719.66;15262751;19;20013;-47
2023/04/11 07:02:38;;;;;;;2.00;1.50;;;;;;;8.06;100.00;97733.75;15259574;19;20023;-47
2023/04/11 07:08:06;;;;;;;2.03;1.50;;;;;;;8.12;100.00;97726.88;15261274;19;20010;-46
2023/04/11 07:13:35;;;;;;;1.80;1.38;;;;;;;8.18;100.00;97716.34;15263155;19;20010;-48
2023/04/11 07:19:06;;;;;;;1.83;1.25;;;;;;;8.27;100.00;97730.63;15260401;19;20014;-45
2023/04/11 07:24:42;;;;;;;0.93;0.70;;;;;;;8.35;100.00;97727.09;15260847;19;20935;-45
2023/04/11 07:30:08;;;;;;;3.05;0.95;;;;;;;8.55;100.00;97718.81;15278336;19;20022;-45
2023/04/11 07:35:33;;;;;;;3.05;0.90;;;;;;;8.68;100.00;97726.34;15269522;19;20418;-46
2023/04/11 07:41:04;;;;;;;1.65;0.70;;;;;;;8.72;100.00;97739.28;15282138;19;20021;-45
2023/04/11 07:46:28;;;;;;;3.40;0.87;;;;;;;8.79;100.00;97729.56;15274783;19;20355;-46
2023/04/11 07:51:53;;;;;;;3.17;0.70;;;;;;;8.97;100.00;97725.03;15275507;19;20466;-51
2023/04/11 07:57:20;;;;;;;2.35;0.73;;;;;;;9.21;100.00;97726.84;15272807;19;20010;-47
2023/04/11 08:02:46;;;;;;;2.90;0.90;;;;;;;9.32;100.00;97733.75;15269371;19;20014;-46
2023/04/11 08:08:10;;;;;;;3.35;0.80;;;;;;;9.39;100.00;97745.47;15265169;19;20014;-48
2023/04/11 08:13:38;;;;;;;1.67;0.77;;;;;;;9.66;100.00;97746.09;15269498;19;20002;-48
2023/04/11 08:19:03;;;;;;;2.17;0.77;;;;;;;9.64;100.00;97748.13;15275021;19;20045;-49
2023/04/11 08:24:27;;;;;;;4.32;1.10;;;;;;;10.01;100.00;97742.09;15280087;19;20033;-49
2023/04/11 08:29:55;;;;;;;4.25;1.02;;;;;;;10.15;100.00;97737.88;15280859;19;20355;-47
2023/04/11 08:35:20;;;;;;;3.60;0.95;;;;;;;9.95;100.00;97745.50;15276297;19;20022;-49
2023/04/11 08:40:44;;;;;;;3.78;1.00;;;;;;;9.65;100.00;97733.66;15274136;19;20021;-47
2023/04/11 08:46:13;;;;;;;3.20;0.90;;;;;;;9.91;100.00;97727.19;15273414;19;20463;-51
2023/04/11 08:51:37;;;;;;;3.55;1.10;;;;;;;10.50;100.00;97715.16;15275765;19;20018;-50
2023/04/11 08:57:02;;;;;;;1.95;0.85;;;;;;;10.55;100.00;97729.75;15272215;19;20021;-48
2023/04/11 09:02:30;;;;;;;2.47;0.80;;;;;;;10.26;100.00;97730.41;15275437;19;20093;-51
2023/04/11 09:07:56;;;;;;;1.83;0.90;;;;;;;9.96;100.00;97730.19;15270091;19;20014;-49
2023/04/11 09:13:29;;;;;;;2.53;0.90;;;;;;;10.04;100.00;97740.94;15263459;19;20094;-49
2023/04/11 09:19:03;;;;;;;2.40;0.77;;;;;;;10.22;100.00;97718.31;15270982;19;20016;-51
2023/04/11 09:24:28;;;;;;;3.88;1.10;;;;;;;10.39;100.00;97730.69;15268840;19;20021;-52
2023/04/11 09:29:55;;;;;;;4.25;1.00;;;;;;;10.70;100.00;97726.31;15273657;19;20010;-49
2023/04/11 09:35:27;;;;;;;4.10;0.88;;;;;;;10.89;100.00;97703.41;15268841;19;20015;-48
2023/04/11 09:40:52;;;;;;;3.30;0.90;;;;;;;10.77;100.00;97708.38;15275972;19;20010;-48
2023/04/11 09:46:17;;;;;;;1.95;0.70;;;;;;;11.21;100.00;97713.06;15266786;19;20370;-49
2023/04/11 09:51:45;;;;;;;2.08;0.90;;;;;;;11.40;100.00;97689.31;15269698;19;20416;-48
2023/04/11 09:57:10;;;;;;;4.25;0.98;;;;;;;11.35;100.00;97708.72;15271270;19;20802;-47
2023/04/11 10:02:34;;;;;;;1.05;0.50;;;;;;;10.29;100.00;97730.06;15271928;19;20021;-48
2023/04/11 10:08:07;;;;;;;2.50;0.40;;;;;;;9.02;100.00;97781.78;15268915;19;20010;-51
2023/04/11 10:13:48;;;;;;;1.60;0.40;;;;;;;8.73;100.00;97769.69;15271733;19;20485;-50
2023/04/11 10:19:40;;;;;;;1.10;0.20;;;;;;;8.25;100.00;97839.97;15260980;19;20033;-49
2023/04/11 10:25:22;;;;;;;0.93;0.20;;;;;;;7.92;100.00;97822.84;15266184;19;20014;-49
2023/04/11 10:31:03;;;;;;;;;;;;;;;8.00;100.00;97810.34;15266537;19;20619;-46
2023/04/11 10:36:28;;;;;;;0.98;0.32;;;;;;;8.15;100.00;97804.38;15262816;19;19915;-52
2023/04/11 10:41:55;;;;;;;2.08;0.30;;;;;;;8.33;100.00;97815.84;15266657;19;20025;-52
2023/04/11 10:47:24;;;;;;;1.77;0.40;;;;;;;8.50;100.00;97821.31;15258721;19;20022;-52
2023/04/11 10:52:49;;;;;;;1.77;0.63;;;;;;;8.73;100.00;97816.16;15264455;19;20025;-48
2023/04/11 10:58:18;;;;;;;1.05;0.38;;;;;;;9.05;100.00;97819.06;15263522;19;20101;-50
2023/04/11 11:03:43;;;;;;;1.30;0.40;;;;;;;9.54;100.00;97816.38;15265879;19;20018;-52
2023/04/11 11:09:23;;;;;;;1.65;0.60;;;;;;;10.05;100.00;97819.81;15266452;19;20010;-53
2023/04/11 11:14:53;;;;;;;1.15;0.40;;;;;;;9.46;100.00;97851.34;15254853;19;20020;-51
2023/04/11 11:20:19;;;;;;;0.88;0.20;;;;;;;8.74;100.00;97854.63;15255121;19;20010;-50
2023/04/11 11:25:44;;;;;;;0.88;0.40;;;;;;;8.14;100.00;97902.78;15259483;19;20494;-52
2023/04/11 11:31:11;;;;;;;1.52;0.50;;;;;;;7.38;100.00;97886.31;15262070;19;21090;-54
2023/04/11 11:36:37;;;;;;;1.65;0.40;;;;;;;7.33;100.00;97872.56;15259754;19;20022;-49
2023/04/11 11:42:02;;;;;;;0.68;0.40;;;;;;;7.48;100.00;97867.50;15258992;19;20011;-47
2023/04/11 11:47:29;;;;;;;0.68;0.28;;;;;;;7.65;100.00;97855.06;15260674;19;20014;-49
2023/04/11 11:52:54;;;;;;;1.38;0.32;;;;;;;7.85;100.00;97869.09;15259658;19;20018;-54
2023/04/11 11:58:18;;;;;;;1.80;0.40;;;;;;;8.28;100.00;97876.38;15262358;19;20025;-49
2023/04/11 12:03:45;;;;;;;0.63;0.40;;;;;;;8.35;100.00;97866.66;15260713;19;21247;-48
2023/04/11 12:09:12;;;;;;;1.25;0.50;;;;;;;8.86;100.00;97874.78;15262468;19;20990;-51
2023/04/11 12:14:37;;;;;;;2.15;0.60;;;;;;;8.88;100.00;97874.63;15275325;19;20013;-52
2023/04/11 12:20:07;;;;;;;1.73;0.57;;;;;;;9.22;100.00;97879.03;15271776;19;20018;-48
2023/04/11 12:25:32;;;;;;;1.67;0.60;;;;;;;9.49;100.00;97869.00;15266298;19;20025;-51
2023/04/11 12:30:56;;;;;;;1.25;0.55;;;;;;;9.81;100.00;97865.44;15274976;19;21128;-47
2023/04/11 12:36:24;;;;;;;1.10;0.60;;;;;;;10.24;100.00;97883.19;15270384;19;20029;-50
2023/04/11 12:41:49;;;;;;;2.97;1.15;;;;;;;10.49;100.00;97865.09;15274298;19;20010;-47
2023/04/11 12:47:14;;;;;;;0.98;0.40;;;;;;;10.87;100.00;97878.75;14759046;19;10000486;-47
2023/04/11 12:52:50;;;;;;;1.73;0.82;;;;;;;11.30;100.00;97851.34;15273224;19;20042;-49
2023/04/11 12:58:15;;;;;;;1.67;0.60;;;;;;;11.51;100.00;97855.22;15268961;19;20484;-50
2023/04/11 13:03:40;;;;;;;2.05;0.73;;;;;;;11.35;100.00;97853.50;15272857;19;20028;-47
2023/04/11 13:09:08;;;;;;;1.88;0.60;;;;;;;11.57;100.00;97854.53;15274679;19;20359;-47
2023/04/11 13:14:35;;;;;;;1.90;0.80;;;;;;;11.61;97.93;97853.13;15269917;19;20018;-48
2023/04/11 13:20:00;;;;;;;1.63;0.80;;;;;;;11.83;94.55;97846.00;15272043;19;20090;-48
2023/04/11 13:25:27;;;;;;;1.90;0.80;;;;;;;11.55;95.95;97857.38;15270813;19;20017;-50
2023/04/11 13:30:52;;;;;;;1.35;0.60;;;;;;;11.01;95.28;97896.00;15269550;19;20014;-48
2023/04/11 13:36:18;;;;;;;3.80;0.80;;;;;;;11.18;100.00;97874.34;15269821;19;20400;-50
2023/04/11 13:41:45;;;;;;;2.75;1.00;;;;;;;10.85;100.00;97872.69;15269953;19;20380;-52
2023/04/11 13:47:11;;;;;;;2.47;0.85;;;;;;;10.84;100.00;97872.88;15271478;19;20101;-49
2023/04/11 13:52:36;;;;;;;2.53;1.10;;;;;;;10.99;100.00;97876.50;15273474;19;20029;-47
2023/04/11 13:58:03;;;;;;;3.38;1.20;;;;;;;11.22;100.00;97856.81;15263310;19;20669;-52
2023/04/11 14:03:32;;;;;;;5.40;1.13;;;;;;;11.58;100.00;97872.38;15262896;19;20043;-51
2023/04/11 14:08:56;;;;;;;1.23;0.63;;;;;;;12.13;95.05;97858.75;15270426;19;20018;-51
2023/04/11 14:14:23;;;;;;;2.03;0.70;;;;;;;12.27;75.49;97848.94;15268310;19;20069;-50
2023/04/11 14:19:55;;;;;;;3.47;1.10;;;;;;;12.45;78.27;97849.44;15262465;19;20015;-54
2023/04/11 14:25:21;;;;;;;2.03;0.80;;;;;;;12.52;66.99;97864.88;15262752;19;20632;-52
2023/04/11 14:30:48;;;;;;;2.47;0.90;;;;;;;12.74;67.41;97871.19;15264382;19;20614;-54
2023/04/11 14:36:13;;;;;;;1.98;1.00;;;;;;;12.10;59.93;97864.50;15260457;19;20372;-49
2023/04/11 14:41:37;;;;;;;3.03;0.82;;;;;;;11.72;65.74;97870.75;15265380;19;20089;-47
2023/04/11 14:47:05;;;;;;;3.60;0.93;;;;;;;11.46;62.03;97877.34;15265198;19;20479;-47
2023/04/11 14:52:29;;;;;;;2.72;0.80;;;;;;;11.23;67.74;97888.16;15266720;19;20014;-51
2023/04/11 14:57:55;;;;;;;3.63;0.80;;;;;;;10.91;69.52;97938.50;15261217;19;20010;-51
2023/04/11 15:03:23;;;;;;;0.75;0.43;;;;;;;10.55;56.53;97937.16;15268297;19;20012;-48
2023/04/11 15:08:49;;;;;;;0.70;0.40;;;;;;;11.16;54.59;97911.44;15264231;19;20021;-51
2023/04/11 15:14:13;;;;;;;0.20;0.20;;;;;;;11.88;53.05;97905.66;15265232;19;20463;-51
2023/04/11 15:19:47;;;;;;;0.30;0.30;;;;;;;12.11;51.59;97898.56;15263436;19;20020;-50
2023/04/11 15:25:15;;;;;;;1.67;0.50;;;;;;;12.22;51.99;97908.09;15262689;19;20014;-52
2023/04/11 15:30:39;;;;;;;2.67;0.50;;;;;;;12.16;53.31;97906.97;15267016;19;20031;-49
2023/04/11 15:36:07;;;;;;;1.35;0.65;;;;;;;11.95;52.82;97908.47;15260914;19;20484;-50
2023/04/11 15:41:31;;;;;;;0.75;0.40;;;;;;;11.65;57.62;97908.41;15251801;19;20101;-48
2023/04/11 15:46:56;;;;;;;1.98;0.57;;;;;;;11.22;58.77;97916.13;15267274;19;20481;-50
2023/04/11 15:52:23;;;;;;;1.35;0.68;;;;;;;10.83;62.10;97927.78;15278475;19;20017;-48
2023/04/11 15:57:48;;;;;;;3.25;0.60;;;;;;;10.11;64.11;98007.53;15272954;19;20017;-51
2023/04/11 16:03:15;;;;;;;1.13;0.40;;;;;;;9.10;82.32;97984.16;15277603;19;20030;-51
2023/04/11 16:08:42;;;;;;;0.77;0.40;;;;;;;8.65;91.06;97982.63;15278699;19;20070;-50
2023/04/11 16:14:07;;;;;;;0.30;0.30;;;;;;;8.58;100.00;97977.06;15272847;19;20011;-54
2023/04/11 16:19:40;;;;;;;1.30;0.40;;;;;;;8.54;92.08;97967.63;15272979;19;20018;-50
2023/04/11 16:25:09;;;;;;;1.02;0.38;;;;;;;8.52;87.20;97945.50;15264730;19;20060;-50
2023/04/11 16:30:33;;;;;;;0.63;0.30;;;;;;;8.85;72.78;97942.09;15265638;19;20014;-49
2023/04/11 16:35:58;;;;;;;0.45;0.30;;;;;;;9.59;64.91;97954.84;15262554;19;20038;-54
2023/04/11 16:41:25;;;;;;;0.60;0.40;;;;;;;10.02;70.63;97948.31;15263072;19;20016;-50
2023/04/11 16:46:50;;;;;;;1.20;0.50;;;;;;;10.30;75.71;97950.63;15259786;19;20025;-48
2023/04/11 16:52:14;;;;;;;0.50;0.30;;;;;;;10.12;68.60;97966.97;15265537;19;20009;-48
2023/04/11 16:57:42;;;;;;;1.55;0.50;;;;;;;9.69;75.29;97963.63;15260739;19;20492;-49
2023/04/11 17:03:06;;;;;;;0.85;0.30;;;;;;;9.46;77.13;97976.88;15257461;19;20018;-51
2023/04/11 17:08:31;;;;;;;0.55;0.40;;;;;;;9.65;79.29;97971.16;15265201;19;20015;-52
2023/04/11 17:13:58;;;;;;;0.98;0.38;;;;;;;9.32;75.84;97979.19;15263621;19;20014;-50
2023/04/11 17:19:24;;;;;;;1.00;0.40;;;;;;;9.01;74.16;97970.84;15261594;19;20537;-55
2023/04/11 17:24:48;;;;;;;0.98;0.40;;;;;;;8.77;82.72;97967.06;15260404;19;20021;-56
2023/04/11 17:30:18;;;;;;;1.15;0.40;;;;;;;8.55;82.96;97973.84;15270988;19;20050;-56
2023/04/11 17:35:43;;;;;;;1.77;0.60;;;;;;;8.21;94.00;97980.81;15268804;19;20016;-47
2023/04/11 17:41:09;;;;;;;1.23;0.57;;;;;;;7.97;100.00;97998.41;15295350;19;20118;-52
2023/04/11 17:46:36;;;;;;;0.85;0.40;;;;;;;7.97;87.43;98027.09;15275795;19;20826;-48
2023/04/11 17:52:01;;;;;;;1.77;0.50;;;;;;;8.06;86.63;98022.63;15260487;19;20014;-54
2023/04/11 17:57:26;;;;;;;2.88;0.68;;;;;;;8.08;93.28;98008.06;15256295;19;20010;-49
2023/04/11 18:03:02;;;;;;;1.00;0.45;;;;;;;8.02;96.71;98048.91;15252006;19;20015;-47
2023/04/11 18:08:28;;;;;;;1.63;0.50;;;;;;;7.97;100.00;98072.69;15260511;19;20017;-45
2023/04/11 18:14:08;;;;;;;1.20;0.40;;;;;;;8.04;100.00;98095.22;15249042;19;20026;-50
2023/04/11 18:19:42;;;;;;;1.15;0.57;;;;;;;7.58;100.00;98137.31;15244604;19;20077;-47
2023/04/11 18:25:08;;;;;;;1.83;0.70;;;;;;;6.91;100.00;98147.16;15252075;19;20118;-49
2023/04/11 18:30:33;;;;;;;2.25;0.70;;;;;;;6.81;100.00;98095.47;15257644;19;20015;-52
2023/04/11 18:36:01;;;;;;;1.33;0.70;;;;;;;6.91;100.00;98049.88;15252714;19;20044;-47
2023/04/11 18:41:26;;;;;;;2.13;0.80;;;;;;;6.85;100.00;98067.38;15253846;19;20093;-49
2023/04/11 18:46:51;;;;;;;1.23;0.70;;;;;;;6.71;100.00;98076.75;15251845;19;20017;-52
2023/04/11 18:52:22;;;;;;;1.25;0.90;;;;;;;6.66;100.00;98068.28;15249555;19;20021;-51
2023/04/11 18:57:47;;;;;;;1.88;1.05;;;;;;;6.57;100.00;98070.03;15251364;19;20010;-47
2023/04/11 19:03:17;;;;;;;2.50;1.08;;;;;;;6.26;100.00;98066.69;15250578;19;20027;-49
2023/04/11 19:08:47;;;;;;;1.58;0.65;;;;;;;6.23;100.00;98083.03;15259137;19;20014;-46
2023/04/11 19:14:11;;;;;;;1.17;0.60;;;;;;;6.09;100.00;98078.97;15253113;19;20018;-49
2023/04/11 19:19:43;;;;;;;1.23;0.60;;;;;;;6.23;100.00;98073.19;15255872;19;20018;-52
2023/04/11 19:25:13;;;;;;;0.93;0.50;;;;;;;6.24;100.00;98074.00;15283570;19;20542;-46
2023/04/11 19:30:38;;;;;;;1.00;0.75;;;;;;;6.04;100.00;98081.19;15289708;19;20014;-47
2023/04/11 19:36:03;;;;;;;1.90;0.80;;;;;;;5.68;100.00;98084.38;15285235;19;20018;-45
2023/04/11 19:41:30;;;;;;;1.20;0.80;;;;;;;5.49;100.00;98086.03;15284814;19;20209;-46
2023/04/11 19:46:55;;;;;;;1.75;0.90;;;;;;;5.46;100.00;98080.97;15283348;19;20331;-48
2023/04/11 19:52:19;;;;;;;2.88;1.02;;;;;;;5.32;100.00;98082.19;15285447;19;20380;-51
2023/04/11 19:57:42;;;;;;;2.17;1.00;;;;;;;5.28;100.00;98074.59;15278793;19;20475;-47
2023/04/11 20:03:13;;;;;;;2.10;1.00;;;;;;;5.11;100.00;98063.59;15281295;19;20011;-48
2023/04/11 20:08:38;;;;;;;2.27;1.20;;;;;;;5.02;100.00;98067.03;15284039;19;20015;-50
2023/04/11 20:14:05;;;;;;;1.35;1.00;;;;;;;4.99;100.00;98064.66;15282789;19;20011;-51
2023/04/11 20:19:38;;;;;;;2.20;1.20;;;;;;;4.87;100.00;98050.56;15278136;19;20573;-50
2023/04/11 20:25:03;;;;;;;1.67;1.08;;;;;;;4.71;100.00;98064.41;15281446;19;20030;-48
2023/04/11 20:30:31;;;;;;;2.60;1.10;;;;;;;4.54;100.00;98058.69;15284735;19;20097;-47
2023/04/11 20:35:57;;;;;;;1.95;1.25;;;;;;;4.56;100.00;98071.91;15272686;19;20359;-47
2023/04/11 20:41:23;;;;;;;2.00;1.30;;;;;;;4.50;100.00;98065.28;15272475;19;20527;-50
2023/04/11 20:46:52;;;;;;;2.45;1.20;;;;;;;4.41;100.00;98069.56;15269700;19;20014;-50
2023/04/11 20:52:16;;;;;;;2.47;0.93;;;;;;;4.36;100.00;98060.28;15274728;19;20074;-54
2023/04/11 20:57:43;;;;;;;1.65;0.90;;;;;;;4.25;100.00;98048.69;15270534;19;20029;-53
2023/04/11 21:03:11;;;;;;;2.47;1.02;;;;;;;4.25;100.00;98037.19;15262337;19;20589;-50
2023/04/11 21:08:36;;;;;;;1.60;0.88;;;;;;;4.26;100.00;98033.53;15270325;19;20015;-51
2023/04/11 21:14:01;;;;;;;1.98;0.98;;;;;;;4.20;100.00;98028.75;15274516;19;20014;-51
2023/04/11 21:19:35;;;;;;;2.20;1.10;;;;;;;4.17;100.00;98029.84;15268018;19;20408;-51
2023/04/11 21:25:00;;;;;;;1.38;0.68;;;;;;;4.16;100.00;98039.66;15273577;19;20029;-49
2023/04/11 21:30:24;;;;;;;1.70;0.88;;;;;;;4.17;100.00;98032.53;15273864;19;20408;-50
2023/04/11 21:35:54;;;;;;;1.40;0.80;;;;;;;4.14;100.00;98019.44;15268269;19;20010;-54
2023/04/11 21:41:18;;;;;;;1.95;0.90;;;;;;;4.13;100.00;98023.09;15273486;19;20014;-51
2023/04/11 21:46:43;;;;;;;1.92;0.95;;;;;;;4.13;100.00;98029.25;15264553;19;20013;-51
2023/04/11 21:52:10;;;;;;;2.13;0.90;;;;;;;4.13;100.00;98033.75;15274199;19;20017;-50
2023/04/11 21:57:35;;;;;;;1.20;0.90;;;;;;;4.08;100.00;98039.47;15268793;19;20010;-50
2023/04/11 22:03:00;;;;;;;2.10;1.02;;;;;;;3.98;100.00;98033.22;15265334;19;20351;-52
2023/04/11 22:08:28;;;;;;;1.83;1.02;;;;;;;3.87;100.00;98023.47;15268207;19;20275;-55
2023/04/11 22:13:53;;;;;;;1.75;1.00;;;;;;;3.86;100.00;98011.09;15268363;19;20341;-49
2023/04/11 22:19:23;;;;;;;1.98;0.90;;;;;;;3.86;100.00;98005.78;15267291;19;20006;-53
2023/04/11 22:24:51;;;;;;;3.53;0.93;;;;;;;3.84;100.00;97997.91;15269961;19;20471;-52
2023/04/11 22:30:17;;;;;;;1.88;0.88;;;;;;;3.86;100.00;98003.09;15270146;19;20007;-52
2023/04/11 22:35:42;;;;;;;2.03;1.00;;;;;;;3.87;100.00;98004.81;15267339;19;20015;-51
2023/04/11 22:41:16;;;;;;;5.00;1.05;;;;;;;3.87;100.00;97994.13;15262865;19;20369;-52
2023/04/11 22:46:41;;;;;;;1.98;0.80;;;;;;;3.88;100.00;97982.50;15263936;19;20021;-52
2023/04/11 22:52:06;;;;;;;3.67;1.00;;;;;;;3.91;100.00;97982.25;15265835;19;20025;-51
2023/04/11 22:57:35;;;;;;;1.92;0.90;;;;;;;3.93;100.00;97980.31;15262978;19;20037;-54
2023/04/11 23:03:01;;;;;;;2.47;0.88;;;;;;;3.90;100.00;97969.03;15263384;19;20024;-52
2023/04/11 23:08:27;;;;;;;1.58;0.90;;;;;;;3.89;100.00;97965.56;15236420;19;20224;-50
2023/04/11 23:13:56;;;;;;;3.25;0.82;;;;;;;3.89;100.00;97962.03;15261138;19;20018;-50
2023/04/11 23:19:20;;;;;;;1.40;0.90;;;;;;;3.83;100.00;97942.06;15264774;19;20015;-50
2023/04/11 23:24:45;;;;;;;2.90;1.08;;;;;;;3.74;100.00;97940.19;15259747;19;20014;-51
2023/04/11 23:30:13;;;;;;;1.65;0.90;;;;;;;3.70;100.00;97936.94;15264219;19;20018;-51
2023/04/11 23:35:45;;;;;;;2.95;1.05;;;;;;;3.67;100.00;97926.53;15261889;19;20028;-52
2023/04/11 23:41:11;;;;;;;2.28;1.00;;;;;;;3.70;100.00;97915.63;15261744;19;20078;-50
2023/04/11 23:46:39;;;;;;;1.85;0.80;;;;;;;3.72;100.00;97916.34;15255848;19;20021;-50
2023/04/11 23:52:04;;;;;;;2.10;0.93;;;;;;;3.73;100.00;97903.88;15261318;19;20014;-51
2023/04/11 23:57:30;;;;;;;1.75;0.80;;;;;;;3.72;100.00;97881.72;15258874;19;20022;-50
